Time;durP1;ratioP1;P1;durP2;ratioP2;P2;SDS_P1;SDS_P2;PMS_P1;PMS_P2;Temp;Humidity;BMP_temperature;BMP_pressure;BME280_temperature;BME280_humidity;BME280_pressure;Samples;Min_cycle;Max_cycle;Signal;HPM_P1;HPM_P2
2022/10/08 00:00:55;;;;;;;40.70;24.08;;;;;;;15.48;100.00;100893.06;4957607;29;20027;-84
2022/10/08 00:03:22;;;;;;;38.88;23.23;;;;;;;15.38;100.00;100893.31;4959062;29;20493;-85
2022/10/08 00:06:07;;;;;;;36.17;22.65;;;;;;;15.57;100.00;100891.97;4944448;29;20032;-87
2022/10/08 00:08:36;;;;;;;34.85;22.13;;;;;;;15.67;100.00;100897.88;4961520;29;20071;-87
2022/10/08 00:11:05;;;;;;;35.10;22.17;;;;;;;15.85;100.00;100894.78;4960860;29;20032;-84
2022/10/08 00:13:39;;;;;;;34.75;20.58;;;;;;;15.95;100.00;100890.81;4960303;29;20042;-85
2022/10/08 00:16:11;;;;;;;38.45;22.95;;;;;;;15.91;100.00;100886.84;4963725;29;20035;-89
2022/10/08 00:18:41;;;;;;;33.55;22.08;;;;;;;15.75;100.00;100884.38;4957794;29;20054;-85
2022/10/08 00:21:15;;;;;;;29.40;20.42;;;;;;;15.81;100.00;100891.66;4962706;29;20046;-88
2022/10/08 00:23:47;;;;;;;32.70;21.27;;;;;;;15.86;100.00;100883.91;4962724;29;20124;-87
2022/10/08 00:26:22;;;;;;;34.58;21.33;;;;;;;15.74;100.00;100888.06;4959500;29;20076;-87
2022/10/08 00:28:49;;;;;;;30.90;21.38;;;;;;;15.68;100.00;100885.31;4955819;29;20114;-87
2022/10/08 00:31:21;;;;;;;39.20;22.17;;;;;;;15.39;100.00;100884.31;4937702;29;20528;-85
2022/10/08 00:33:52;;;;;;;27.50;17.05;;;;;;;15.16;100.00;100888.06;4966780;29;20039;-84
2022/10/08 00:36:24;;;;;;;31.88;21.88;;;;;;;15.08;100.00;100890.84;4941842;29;20416;-85
2022/10/08 00:39:11;;;;;;;35.17;23.03;;;;;;;15.09;100.00;100881.78;4960100;29;20126;-86
2022/10/08 00:41:37;;;;;;;37.95;22.75;;;;;;;15.17;100.00;100879.88;4976009;28;20054;-84
2022/10/08 00:44:42;;;;;;;33.38;21.40;;;;;;;15.35;100.00;100887.50;4974339;29;20082;-86
2022/10/08 00:47:30;;;;;;;37.03;23.20;;;;;;;15.56;100.00;100886.81;4957709;29;20055;-84
2022/10/08 00:50:00;;;;;;;36.83;22.63;;;;;;;15.64;100.00;100882.22;4963696;29;20035;-84
2022/10/08 00:52:32;;;;;;;33.10;22.35;;;;;;;15.60;100.00;100880.91;4944993;29;20378;-85
2022/10/08 00:54:58;;;;;;;33.38;21.80;;;;;;;15.44;100.00;100886.44;4944093;29;20036;-87
2022/10/08 00:57:26;;;;;;;43.05;22.40;;;;;;;15.36;100.00;100875.81;4957476;29;20116;-85
2022/10/08 00:59:55;;;;;;;32.85;21.25;;;;;;;15.38;100.00;100873.78;4943823;29;20074;-85
2022/10/08 01:02:20;;;;;;;30.00;20.60;;;;;;;15.27;100.00;100877.78;4942916;29;20463;-87
2022/10/08 01:04:47;;;;;;;30.88;20.08;;;;;;;15.20;100.00;100879.50;4960759;29;20059;-85
2022/10/08 01:07:37;;;;;;;29.63;20.63;;;;;;;15.20;100.00;100873.34;4960897;29;20131;-87
2022/10/08 01:10:24;;;;;;;29.27;19.73;;;;;;;15.12;100.00;100871.56;4960109;29;20552;-85
2022/10/08 01:13:05;;;;;;;27.85;20.25;;;;;;;15.14;100.00;100869.56;4959331;29;20355;-85
2022/10/08 01:15:43;;;;;;;34.17;21.08;;;;;;;15.20;100.00;100868.00;4959893;29;20031;-85
2022/10/08 01:18:47;;;;;;;36.85;20.98;;;;;;;15.37;100.00;100866.81;4960659;29;20032;-86
2022/10/08 01:21:26;;;;;;;28.13;19.27;;;;;;;15.58;100.00;100866.91;4960696;29;20143;-86
2022/10/08 01:24:09;;;;;;;38.92;22.08;;;;;;;15.60;100.00;100856.03;4961866;29;20047;-85
2022/10/08 01:27:00;;;;;;;33.10;22.67;;;;;;;15.49;100.00;100862.69;4961057;29;20031;-87
2022/10/08 01:29:38;;;;;;;32.92;22.75;;;;;;;15.46;100.00;100858.50;4944991;29;20039;-87
2022/10/08 01:32:13;;;;;;;38.10;22.00;;;;;;;15.51;100.00;100850.00;4961565;29;20039;-86
2022/10/08 01:34:50;;;;;;;32.85;22.42;;;;;;;15.43;100.00;100848.19;4964869;29;20039;-86
2022/10/08 01:37:22;;;;;;;35.45;21.75;;;;;;;15.47;100.00;100848.66;4964123;29;20046;-85
2022/10/08 01:39:52;;;;;;;29.98;22.52;;;;;;;15.42;100.00;100848.38;4953065;29;20031;-88
2022/10/08 01:42:22;;;;;;;33.25;22.45;;;;;;;15.33;100.00;100850.31;4968003;29;20039;-88
2022/10/08 01:44:57;;;;;;;33.60;21.58;;;;;;;15.22;100.00;100845.44;4945665;29;20036;-83
2022/10/08 01:47:29;;;;;;;31.10;21.50;;;;;;;15.25;100.00;100833.56;4961694;29;20055;-83
2022/10/08 01:50:27;;;;;;;31.92;21.10;;;;;;;15.45;100.00;100840.00;4963757;29;20054;-84
2022/10/08 01:53:00;;;;;;;33.80;22.20;;;;;;;15.15;100.00;100825.81;4962915;29;20039;-89
2022/10/08 01:55:33;;;;;;;36.63;23.95;;;;;;;14.78;100.00;100831.25;4944479;29;20035;-87
2022/10/08 01:58:04;;;;;;;35.60;24.58;;;;;;;14.58;100.00;100827.44;4960385;29;20032;-89
2022/10/08 02:00:33;;;;;;;45.67;26.23;;;;;;;14.41;100.00;100824.06;4960759;29;20445;-87
2022/10/08 02:02:59;;;;;;;36.65;24.92;;;;;;;14.30;100.00;100821.78;4944491;29;20469;-86
2022/10/08 02:05:28;;;;;;;36.97;26.58;;;;;;;14.19;100.00;100809.69;4927192;29;20050;-86
2022/10/08 02:07:54;;;;;;;42.33;25.75;;;;;;;14.14;100.00;100821.91;4959743;29;20119;-86
2022/10/08 02:10:25;;;;;;;38.70;23.85;;;;;;;14.21;100.00;100815.69;4958259;28;20055;-85
2022/10/08 02:12:51;;;;;;;39.70;24.63;;;;;;;14.28;100.00;100802.47;4958155;29;20043;-85
2022/10/08 02:15:21;;;;;;;37.63;22.63;;;;;;;14.44;100.00;100810.38;4957598;29;20035;-86
2022/10/08 02:17:53;;;;;;;35.08;22.55;;;;;;;14.62;100.00;100808.19;4941514;29;20042;-85
2022/10/08 02:20:37;;;;;;;37.88;22.15;;;;;;;14.67;100.00;100813.00;4957907;29;20039;-85
2022/10/08 02:23:30;;;;;;;30.05;21.42;;;;;;;14.65;100.00;100809.69;4957352;29;20035;-85
2022/10/08 02:26:01;;;;;;;28.42;20.42;;;;;;;14.77;100.00;100802.91;4957787;29;20031;-85
2022/10/08 02:28:33;;;;;;;28.13;19.70;;;;;;;14.77;100.00;100809.06;4957960;29;20495;-86
2022/10/08 02:31:16;;;;;;;29.02;18.88;;;;;;;14.88;100.00;100797.91;4958100;29;20036;-87
2022/10/08 02:33:55;;;;;;;32.80;20.13;;;;;;;14.82;100.00;100806.66;4923994;29;20035;-85
2022/10/08 02:36:27;;;;;;;28.83;19.63;;;;;;;14.72;100.00;100797.25;4958982;29;20093;-85
2022/10/08 02:38:58;;;;;;;24.67;19.05;;;;;;;14.70;100.00;100797.47;4958379;29;20066;-81
2022/10/08 02:41:32;;;;;;;25.48;18.35;;;;;;;14.91;100.00;100802.88;4958826;29;20512;-88
2022/10/08 02:44:02;;;;;;;32.97;20.23;;;;;;;14.95;100.00;100801.53;4960389;29;20041;-85
2022/10/08 02:46:30;;;;;;;26.45;19.27;;;;;;;14.78;100.00;100799.22;4959880;29;20031;-88
2022/10/08 02:49:05;;;;;;;28.13;18.88;;;;;;;14.81;100.00;100796.19;4958910;29;20083;-86
2022/10/08 02:51:35;;;;;;;34.70;19.73;;;;;;;14.69;100.00;100792.28;4941531;29;20085;-86
2022/10/08 02:54:03;;;;;;;28.10;19.13;;;;;;;14.55;100.00;100793.91;4958103;29;20039;-84
2022/10/08 02:56:44;;;;;;;35.75;20.17;;;;;;;14.59;100.00;100795.22;4924264;29;20040;-84
2022/10/08 02:59:10;;;;;;;35.13;18.80;;;;;;;14.86;100.00;100785.78;4939226;29;20389;-84
2022/10/08 03:01:43;;;;;;;27.58;19.55;;;;;;;14.87;100.00;100798.94;4947468;29;20036;-84
2022/10/08 03:04:16;;;;;;;26.20;18.33;;;;;;;14.94;100.00;100789.22;4941572;29;20040;-87
2022/10/08 03:06:43;;;;;;;31.45;18.58;;;;;;;15.02;100.00;100790.94;4944713;29;20064;-85
2022/10/08 03:09:13;;;;;;;30.55;19.35;;;;;;;15.12;100.00;100796.00;4929882;29;20036;-85
2022/10/08 03:11:39;;;;;;;25.85;18.50;;;;;;;15.24;100.00;100790.03;4925731;29;20107;-85
2022/10/08 03:14:08;;;;;;;26.13;17.88;;;;;;;15.12;100.00;100790.66;4938353;29;20369;-85
2022/10/08 03:16:42;;;;;;;27.77;18.45;;;;;;;15.12;100.00;100793.31;4942540;23;20058;-88
2022/10/08 03:19:11;;;;;;;24.40;17.38;;;;;;;15.17;100.00;100797.13;4939201;29;20112;-87
2022/10/08 03:21:38;;;;;;;23.88;18.98;;;;;;;14.92;100.00;100801.88;4941160;29;20036;-89
2022/10/08 03:24:08;;;;;;;28.83;18.17;;;;;;;14.96;100.00;100800.50;4941964;29;20122;-86
2022/10/08 03:26:34;;;;;;;28.73;18.25;;;;;;;14.92;100.00;100801.88;4943520;29;20067;-87
2022/10/08 03:29:00;;;;;;;27.05;18.17;;;;;;;14.96;100.00;100797.00;4942590;29;20462;-88
2022/10/08 03:31:25;;;;;;;30.90;18.15;;;;;;;14.85;100.00;100792.94;4942019;29;20499;-83
2022/10/08 03:33:52;;;;;;;26.25;17.73;;;;;;;14.70;100.00;100797.47;4949669;29;20056;-83
2022/10/08 03:36:19;;;;;;;29.38;18.52;;;;;;;14.75;100.00;100794.25;4959149;29;20016;-84
2022/10/08 03:38:45;;;;;;;28.95;19.30;;;;;;;14.67;100.00;100802.31;4941751;29;20111;-86
2022/10/08 03:41:11;;;;;;;36.58;20.08;;;;;;;14.58;100.00;100796.25;4935637;29;20134;-86
2022/10/08 03:43:36;;;;;;;33.22;19.02;;;;;;;14.52;100.00;100799.63;4935439;29;20126;-84
2022/10/08 03:46:02;;;;;;;31.15;19.40;;;;;;;14.63;100.00;100798.34;4935809;29;20078;-86
2022/10/08 03:48:29;;;;;;;34.35;20.23;;;;;;;14.53;100.00;100800.44;4935861;29;20436;-85
2022/10/08 03:50:57;;;;;;;30.73;19.52;;;;;;;14.54;100.00;100794.94;4937040;29;20036;-84
2022/10/08 03:53:23;;;;;;;28.55;17.73;;;;;;;14.67;100.00;100791.66;4935791;29;20119;-84
2022/10/08 03:55:49;;;;;;;28.63;18.80;;;;;;;14.60;100.00;100801.38;4935573;29;20036;-86
2022/10/08 03:58:15;;;;;;;27.88;18.92;;;;;;;14.68;100.00;100796.78;4918500;29;20087;-84
2022/10/08 04:00:41;;;;;;;29.15;18.67;;;;;;;14.58;100.00;100803.44;4935355;29;20107;-87
2022/10/08 04:03:07;;;;;;;29.52;19.33;;;;;;;14.53;100.00;100798.63;4935356;29;20090;-84
2022/10/08 04:05:33;;;;;;;30.92;19.73;;;;;;;14.51;100.00;100800.66;4935589;29;20063;-87
2022/10/08 04:07:58;;;;;;;38.17;20.27;;;;;;;14.48;100.00;100798.34;4935911;29;20398;-85
2022/10/08 04:10:24;;;;;;;27.95;19.05;;;;;;;14.68;100.00;100804.00;4935427;29;20182;-84
2022/10/08 04:12:50;;;;;;;35.75;20.90;;;;;;;14.59;100.00;100805.06;4935632;29;20402;-84
2022/10/08 04:15:15;;;;;;;34.95;18.80;;;;;;;14.62;100.00;100805.53;4936285;29;20039;-88
2022/10/08 04:17:41;;;;;;;27.10;18.17;;;;;;;14.71;100.00;100815.13;4945910;29;20386;-84
2022/10/08 04:20:07;;;;;;;27.30;18.67;;;;;;;14.68;100.00;100798.66;4948136;29;20042;-85
2022/10/08 04:22:33;;;;;;;27.60;18.60;;;;;;;14.59;100.00;100805.88;4933859;29;20044;-85
2022/10/08 04:24:58;;;;;;;27.98;18.65;;;;;;;14.71;100.00;100804.47;4945599;29;20058;-89
2022/10/08 04:27:27;;;;;;;26.92;18.40;;;;;;;14.74;100.00;100800.59;4924969;29;20119;-86
2022/10/08 04:29:52;;;;;;;25.70;18.85;;;;;;;14.75;100.00;100810.25;4919132;29;20066;-86
2022/10/08 04:32:18;;;;;;;27.05;17.90;;;;;;;14.80;100.00;100808.69;4936587;29;20036;-89
2022/10/08 04:34:43;;;;;;;28.75;18.92;;;;;;;14.60;100.00;100804.88;4939141;29;20036;-87
2022/10/08 04:37:09;;;;;;;32.08;19.67;;;;;;;14.48;100.00;100798.34;4939552;29;20027;-85
2022/10/08 04:39:35;;;;;;;31.67;19.88;;;;;;;14.41;100.00;100802.75;4939137;29;20108;-85
2022/10/08 04:42:00;;;;;;;31.27;20.30;;;;;;;14.44;100.00;100792.53;4939290;29;20135;-88
2022/10/08 04:44:28;;;;;;;33.58;21.15;;;;;;;14.31;100.00;100800.28;4921859;29;20119;-84
2022/10/08 04:46:54;;;;;;;34.30;21.17;;;;;;;14.23;100.00;100800.34;4943282;29;20054;-87
2022/10/08 04:49:20;;;;;;;37.72;21.85;;;;;;;14.32;100.00;100796.59;4945570;29;20041;-86
2022/10/08 04:51:45;;;;;;;33.63;21.15;;;;;;;14.35;100.00;100798.13;4942501;29;20490;-85
2022/10/08 04:54:11;;;;;;;39.45;21.75;;;;;;;14.30;100.00;100789.78;4937995;29;20042;-87
2022/10/08 04:56:36;;;;;;;30.95;20.38;;;;;;;14.28;100.00;100787.31;4951308;29;20035;-88
2022/10/08 04:59:03;;;;;;;36.08;21.60;;;;;;;14.17;100.00;100789.56;4929317;29;20044;-86
2022/10/08 05:01:29;;;;;;;31.13;20.10;;;;;;;14.27;100.00;100795.50;4922547;29;20039;-89
2022/10/08 05:03:56;;;;;;;35.50;19.13;;;;;;;14.39;100.00;100788.75;4923468;29;20082;-86
2022/10/08 05:06:24;;;;;;;42.78;21.58;;;;;;;14.36;100.00;100794.44;4941492;29;20498;-86
2022/10/08 05:08:49;;;;;;;33.75;20.33;;;;;;;14.51;100.00;100787.31;4923683;29;20043;-88
2022/10/08 05:11:17;;;;;;;31.65;19.55;;;;;;;14.65;100.00;100793.69;4923230;29;20044;-87
2022/10/08 05:13:42;;;;;;;34.70;19.48;;;;;;;14.44;100.00;100791.72;4938942;29;20040;-88
2022/10/08 05:16:11;;;;;;;33.45;20.13;;;;;;;14.36;100.00;100791.75;4922626;29;20486;-85
2022/10/08 05:21:31;;;;;;;37.00;19.88;;;;;;;14.29;100.00;100793.47;5590145;23;20051;-85
2022/10/08 05:24:03;;;;;;;34.63;21.30;;;;;;;14.11;100.00;100795.63;4966473;28;20070;-86
2022/10/08 05:26:32;;;;;;;37.17;23.02;;;;;;;14.16;100.00;100793.22;4961513;29;20071;-85
2022/10/08 05:29:05;;;;;;;30.13;20.13;;;;;;;14.15;100.00;100791.59;4962254;29;20060;-87
2022/10/08 05:31:35;;;;;;;36.22;22.35;;;;;;;13.98;100.00;100790.88;4963080;29;20628;-86
2022/10/08 05:34:00;;;;;;;35.22;21.20;;;;;;;13.94;100.00;100793.06;4944444;29;20039;-91
2022/10/08 05:36:28;;;;;;;38.85;21.83;;;;;;;13.79;100.00;100794.81;4941312;29;20037;-88
2022/10/08 05:38:57;;;;;;;32.53;21.60;;;;;;;13.73;100.00;100795.53;4960629;29;20027;-87
2022/10/08 05:41:26;;;;;;;36.58;22.45;;;;;;;13.71;100.00;100797.56;4958938;29;20130;-88
2022/10/08 05:43:56;;;;;;;35.33;22.17;;;;;;;13.82;100.00;100802.47;4969376;28;20066;-88
2022/10/08 05:46:24;;;;;;;32.40;21.65;;;;;;;14.09;100.00;100802.94;4972671;29;20469;-90
2022/10/08 05:48:55;;;;;;;37.97;22.27;;;;;;;14.18;100.00;100801.91;4965168;29;20027;-86
2022/10/08 05:51:21;;;;;;;34.92;20.77;;;;;;;14.25;100.00;100800.19;4966771;29;20046;-90
2022/10/08 05:53:49;;;;;;;36.33;20.92;;;;;;;14.26;100.00;100801.81;4946650;29;20082;-86
2022/10/08 05:56:17;;;;;;;31.58;18.40;;;;;;;14.75;100.00;100810.25;4942083;29;20040;-88
2022/10/08 05:58:43;;;;;;;29.95;18.20;;;;;;;15.31;100.00;100811.47;4941201;29;20043;-89
2022/10/08 06:01:14;;;;;;;27.63;18.13;;;;;;;15.34;100.00;100817.28;4947808;29;20050;-90
2022/10/08 06:03:40;;;;;;;30.38;17.25;;;;;;;15.72;100.00;100820.63;4951397;29;20070;-89
2022/10/08 06:06:08;;;;;;;29.23;17.13;;;;;;;15.55;100.00;100821.84;4972485;29;20023;-87
2022/10/08 06:08:36;;;;;;;26.63;15.93;;;;;;;16.15;100.00;100821.50;4953957;29;20039;-89
2022/10/08 06:11:03;;;;;;;25.60;15.57;;;;;;;15.87;100.00;100829.47;4965722;29;20035;-87
2022/10/08 06:13:29;;;;;;;28.73;15.27;;;;;;;16.61;100.00;100827.28;4968516;29;20035;-92
2022/10/08 06:16:00;;;;;;;22.10;15.30;;;;;;;16.76;100.00;100830.72;4950614;29;20404;-89
2022/10/08 06:21:49;;;;;;;25.55;16.23;;;;;;;16.24;100.00;100832.91;4963855;29;20059;-86
2022/10/08 06:24:14;;;;;;;21.52;15.43;;;;;;;16.43;100.00;100849.16;4979551;28;20094;-87
2022/10/08 06:26:42;;;;;;;27.25;15.52;;;;;;;16.44;100.00;100839.25;4953390;29;20039;-89
2022/10/08 06:29:15;;;;;;;29.08;16.30;;;;;;;17.09;100.00;100849.69;4971271;29;20036;-91
2022/10/08 06:31:42;;;;;;;26.90;14.82;;;;;;;17.85;100.00;100848.66;4954752;29;20031;-89
2022/10/08 06:34:10;;;;;;;22.42;14.65;;;;;;;17.66;100.00;100853.94;4937854;29;20086;-88
2022/10/08 06:36:36;;;;;;;23.52;14.77;;;;;;;17.56;100.00;100859.66;4968190;29;20039;-88
2022/10/08 06:39:13;;;;;;;25.30;14.85;;;;;;;17.50;100.00;100860.41;4968132;29;20045;-89
2022/10/08 06:41:40;;;;;;;21.88;14.77;;;;;;;17.42;100.00;100860.59;4968058;29;20377;-86
2022/10/08 06:44:09;;;;;;;24.42;14.60;;;;;;;17.34;100.00;100866.09;4968044;29;20058;-87
2022/10/08 06:46:35;;;;;;;24.73;15.63;;;;;;;17.30;100.00;100864.88;4948320;29;20050;-89
2022/10/08 06:49:07;;;;;;;23.02;15.13;;;;;;;17.86;100.00;100869.09;4965854;29;20042;-91
2022/10/08 06:51:33;;;;;;;21.58;14.25;;;;;;;18.38;100.00;100870.22;4945724;29;20067;-87
2022/10/08 06:53:59;;;;;;;22.52;14.30;;;;;;;18.04;100.00;100868.50;4957573;29;20047;-89
2022/10/08 06:56:28;;;;;;;20.25;14.25;;;;;;;18.41;100.00;100876.00;4952362;28;20050;-88
2022/10/08 06:58:54;;;;;;;23.42;14.13;;;;;;;18.14;100.00;100868.94;4959554;29;20043;-89
2022/10/08 07:01:24;;;;;;;27.45;14.18;;;;;;;18.38;100.00;100873.75;4961171;29;20035;-89
2022/10/08 07:03:55;;;;;;;28.95;14.30;;;;;;;19.12;100.00;100875.44;4943457;29;20039;-87
2022/10/08 07:06:23;;;;;;;25.83;14.90;;;;;;;19.11;100.00;100874.59;4957177;29;20046;-88
2022/10/08 07:08:58;;;;;;;27.80;15.27;;;;;;;19.29;100.00;100869.38;4962891;29;20046;-87
2022/10/08 07:11:25;;;;;;;20.75;13.90;;;;;;;19.34;100.00;100876.81;4941230;29;20097;-86
2022/10/08 07:13:54;;;;;;;22.00;13.50;;;;;;;19.09;100.00;100882.84;4939944;29;20481;-85
2022/10/08 07:16:22;;;;;;;24.15;15.05;;;;;;;19.12;100.00;100881.63;4956606;29;20027;-88
2022/10/08 07:18:49;;;;;;;23.85;15.25;;;;;;;19.26;100.00;100882.41;4943931;29;20070;-88
2022/10/08 07:21:16;;;;;;;23.33;14.00;;;;;;;20.06;100.00;100882.78;4957098;29;20568;-88
2022/10/08 07:23:42;;;;;;;23.90;15.10;;;;;;;20.21;100.00;100889.75;4943779;29;20070;-86
2022/10/08 07:26:20;;;;;;;21.75;14.55;;;;;;;20.66;100.00;100893.19;4962889;29;20418;-88
2022/10/08 07:28:54;;;;;;;27.88;14.23;;;;;;;19.74;100.00;100883.78;4965754;29;20039;-85
2022/10/08 07:31:26;;;;;;;20.70;14.55;;;;;;;20.10;100.00;100892.09;4950934;29;20040;-88
2022/10/08 07:33:53;;;;;;;;;;;;;;;20.25;100.00;100893.66;4965543;29;20130;-86
2022/10/08 07:36:21;;;;;;;25.88;14.35;;;;;;;20.05;100.00;100891.88;4942919;29;20309;-83
2022/10/08 07:38:49;;;;;;;19.58;14.63;;;;;;;20.58;100.00;100897.81;4923272;29;20023;-88
2022/10/08 07:41:14;;;;;;;21.98;14.15;;;;;;;20.39;100.00;100889.84;4955438;29;20039;-89
2022/10/08 07:43:40;;;;;;;20.65;14.30;;;;;;;20.76;100.00;100894.38;4940940;29;20029;-90
2022/10/08 07:46:07;;;;;;;23.15;13.93;;;;;;;20.41;100.00;100890.50;4940120;29;20126;-87
2022/10/08 07:48:34;;;;;;;24.98;15.65;;;;;;;19.91;100.00;100895.69;4958210;29;20131;-89
2022/10/08 07:51:08;;;;;;;25.25;14.50;;;;;;;20.17;100.00;100894.75;4958169;29;20047;-90
2022/10/08 07:53:35;;;;;;;24.45;15.88;;;;;;;20.75;100.00;100892.69;4957516;29;20417;-92
2022/10/08 07:56:02;;;;;;;24.23;14.63;;;;;;;21.17;100.00;100898.41;4957460;29;20425;-90
2022/10/08 07:58:27;;;;;;;48.47;27.38;;;;;;;22.14;100.00;100892.91;4958179;29;20039;-90
2022/10/08 08:01:00;;;;;;;26.40;16.02;;;;;;;22.45;96.21;100899.94;4959498;29;20152;-89
2022/10/08 08:03:25;;;;;;;;;;;;;;;22.35;98.27;100907.78;4926030;29;20437;-89
2022/10/08 08:05:52;;;;;;;22.35;15.63;;;;;;;21.85;100.00;100904.47;4941363;29;19922;-89
2022/10/08 08:08:22;;;;;;;25.50;16.48;;;;;;;22.62;96.82;100906.34;4958577;28;20039;-89
2022/10/08 08:11:01;;;;;;;30.80;19.13;;;;;;;22.85;91.50;100913.69;4962523;29;20504;-89
2022/10/08 08:13:29;;;;;;;39.45;19.85;;;;;;;22.81;92.42;100916.03;4963105;29;20063;-89
2022/10/08 08:15:58;;;;;;;37.90;21.90;;;;;;;22.79;93.19;100912.75;4945802;29;20081;-90
2022/10/08 08:18:26;;;;;;;35.35;23.02;;;;;;;22.46;92.89;100917.81;4945089;29;20477;-89
2022/10/08 08:21:05;;;;;;;35.25;22.95;;;;;;;22.62;94.51;100914.44;4944259;29;20053;-90
2022/10/08 08:23:33;;;;;;;39.05;23.02;;;;;;;22.94;90.34;100915.81;4961298;29;20031;-89
2022/10/08 08:26:04;;;;;;;33.00;21.92;;;;;;;23.38;89.02;100910.91;4964158;29;20050;-89
2022/10/08 08:28:31;;;;;;;35.95;22.85;;;;;;;23.06;88.85;100929.38;4951076;29;20488;-90
2022/10/08 08:31:29;;;;;;;35.17;23.77;;;;;;;22.89;90.58;100918.41;4974123;29;20039;-90
2022/10/08 08:33:59;;;;;;;35.50;23.90;;;;;;;23.16;89.01;100914.22;4892862;29;20053;-87
2022/10/08 08:36:34;;;;;;;35.70;24.00;;;;;;;23.26;88.19;100912.78;4885961;29;20056;-89
2022/10/08 08:39:03;;;;;;;49.15;24.17;;;;;;;23.48;87.88;100905.75;4877523;29;20495;-90
2022/10/08 08:41:44;;;;;;;35.67;23.83;;;;;;;24.13;84.61;100909.84;4872287;29;20045;-88
2022/10/08 08:44:17;;;;;;;39.55;26.23;;;;;;;23.98;84.68;100905.97;4929502;28;20507;-89
2022/10/08 08:46:49;;;;;;;37.97;27.33;;;;;;;23.98;85.23;100901.41;4962572;29;20059;-90
2022/10/08 08:49:25;;;;;;;44.63;28.02;;;;;;;24.24;82.46;100910.03;4962497;29;20031;-88
2022/10/08 08:51:52;;;;;;;37.92;26.42;;;;;;;24.19;82.70;100911.56;4944298;29;20472;-90
2022/10/08 08:54:18;;;;;;;34.55;24.63;;;;;;;23.86;86.02;100908.75;4945790;29;20043;-88
2022/10/08 08:56:43;;;;;;;32.65;22.48;;;;;;;24.38;82.60;100911.38;4944167;29;20059;-89
2022/10/08 08:59:28;;;;;;;36.33;23.00;;;;;;;24.41;84.95;100910.91;4962415;29;20062;-88
2022/10/08 09:02:04;;;;;;;38.08;25.75;;;;;;;24.10;84.20;100904.88;4961796;29;20507;-87
2022/10/08 09:04:42;;;;;;;41.53;27.70;;;;;;;24.26;82.58;100907.91;4961348;29;20373;-88
2022/10/08 09:07:16;;;;;;;41.35;24.95;;;;;;;24.81;80.13;100911.59;4962280;29;20035;-89
2022/10/08 09:09:47;;;;;;;40.72;26.48;;;;;;;24.60;80.78;100907.72;4928488;29;20050;-89
2022/10/08 09:12:22;;;;;;;38.60;25.13;;;;;;;24.95;79.85;100906.72;5151948;23;20083;-90
2022/10/08 09:14:55;;;;;;;36.60;25.25;;;;;;;25.45;77.02;100909.34;4942287;29;20039;-88
2022/10/08 09:17:31;;;;;;;39.75;25.30;;;;;;;24.77;80.67;100905.03;4923709;29;20508;-89
2022/10/08 09:19:57;;;;;;;41.95;27.25;;;;;;;25.22;78.34;100904.97;4940393;29;20028;-90
2022/10/08 09:22:29;;;;;;;40.92;26.55;;;;;;;25.36;79.25;100902.69;4941625;29;20047;-92
2022/10/08 09:24:59;;;;;;;38.70;27.40;;;;;;;25.37;77.21;100904.34;4940798;29;20036;-91
2022/10/08 09:27:47;;;;;;;39.85;29.20;;;;;;;24.87;79.77;100894.38;4938633;29;20043;-88
2022/10/08 09:30:43;;;;;;;45.97;29.35;;;;;;;24.40;82.17;100892.97;4940742;29;20090;-84
2022/10/08 09:33:11;;;;;;;48.35;27.58;;;;;;;23.90;83.56;100888.22;4908341;29;20095;-90
2022/10/08 09:35:43;;;;;;;40.97;27.80;;;;;;;23.52;87.15;100890.69;4923586;29;20040;-89
2022/10/08 09:38:24;;;;;;;39.63;27.25;;;;;;;23.87;87.07;100883.28;4941985;29;20044;-90
2022/10/08 09:41:17;;;;;;;43.75;28.63;;;;;;;24.10;84.33;100890.50;4940883;29;20035;-88
2022/10/08 09:43:44;;;;;;;42.80;26.27;;;;;;;24.22;83.62;100894.03;4915030;29;20470;-88
2022/10/08 09:46:31;;;;;;;41.92;28.42;;;;;;;24.51;82.13;100889.41;4938453;29;20028;-87
2022/10/08 09:49:23;;;;;;;41.90;27.92;;;;;;;24.77;80.50;100886.03;4938107;29;20438;-90
2022/10/08 09:51:49;;;;;;;48.58;29.05;;;;;;;25.28;77.82;100895.00;4940453;29;20036;-86
2022/10/08 09:54:21;;;;;;;40.38;26.85;;;;;;;25.92;74.69;100896.94;4943977;29;20054;-88
2022/10/08 09:56:59;;;;;;;44.53;27.25;;;;;;;26.65;71.60;100900.97;4941560;29;20040;-89
2022/10/08 09:59:30;;;;;;;38.00;26.17;;;;;;;27.26;68.36;100901.47;4942066;29;20044;-85
2022/10/08 10:01:57;;;;;;;38.13;26.55;;;;;;;27.57;65.96;100884.28;4942018;29;20401;-88
2022/10/08 10:04:32;;;;;;;44.88;26.83;;;;;;;27.44;65.85;100892.91;4939789;29;20035;-88
2022/10/08 10:06:58;;;;;;;44.78;25.63;;;;;;;27.21;66.92;100892.19;4938907;29;20040;-90
2022/10/08 10:09:39;;;;;;;40.15;26.52;;;;;;;27.28;67.18;100878.34;4906246;29;20457;-87
2022/10/08 10:12:27;;;;;;;40.83;26.20;;;;;;;27.68;66.62;100891.38;4938735;29;20093;-86
2022/10/08 10:14:58;;;;;;;34.80;26.10;;;;;;;28.06;64.50;100891.03;4923075;29;20040;-88
2022/10/08 10:17:36;;;;;;;43.28;28.05;;;;;;;27.41;67.23;100888.75;4937450;29;20054;-85
2022/10/08 10:20:19;;;;;;;42.65;27.48;;;;;;;28.38;63.77;100889.97;4942420;29;20042;-85
2022/10/08 10:22:59;;;;;;;37.45;25.85;;;;;;;28.91;62.71;100888.66;4942062;29;20070;-86
2022/10/08 10:25:45;;;;;;;42.50;28.20;;;;;;;28.93;61.14;100895.50;4937962;29;20039;-80
2022/10/08 10:28:44;;;;;;;41.67;26.90;;;;;;;28.48;64.60;100890.81;4940598;29;20032;-88
2022/10/08 10:31:22;;;;;;;42.37;28.13;;;;;;;29.03;60.32;100876.38;4923815;29;20116;-90
2022/10/08 10:34:12;;;;;;;40.72;28.75;;;;;;;29.10;59.16;100882.34;4942956;29;20039;-92
2022/10/08 10:36:42;;;;;;;41.05;27.20;;;;;;;29.20;54.86;100867.84;4943610;29;20043;-90
2022/10/08 10:39:16;;;;;;;47.20;29.58;;;;;;;29.06;54.11;100866.81;4938486;29;20062;-88
2022/10/08 10:42:06;;;;;;;50.63;29.70;;;;;;;28.66;55.47;100878.59;4939957;29;20405;-85
2022/10/08 10:44:46;;;;;;;50.97;27.98;;;;;;;28.45;55.44;100866.00;4904576;29;20135;-93
2022/10/08 10:47:12;;;;;;;45.25;30.38;;;;;;;28.36;56.59;100867.63;4943399;29;20055;-88
2022/10/08 10:49:56;;;;;;;51.58;30.20;;;;;;;27.52;60.00;100852.38;4911917;29;20046;-88
2022/10/08 10:53:00;;;;;;;40.60;28.88;;;;;;;26.57;64.00;100857.97;4926570;29;20047;-89
2022/10/08 10:56:11;;;;;;;44.78;31.50;;;;;;;26.09;66.88;100848.78;4942507;29;20050;-93
2022/10/08 10:59:01;;;;;;;49.97;32.00;;;;;;;25.13;72.01;100842.16;4945187;29;20098;-93
2022/10/08 11:01:58;;;;;;;53.47;34.67;;;;;;;24.46;74.33;100844.06;4929216;29;20063;-93
2022/10/08 11:05:01;;;;;;;56.38;33.72;;;;;;;23.86;77.28;100838.34;4932276;29;20044;-93
2022/10/08 11:07:44;;;;;;;47.20;34.00;;;;;;;23.85;79.40;100842.13;4930249;29;20052;-91
2022/10/08 11:10:52;;;;;;;57.05;34.50;;;;;;;23.23;81.63;100832.13;4927336;29;20087;-93
2022/10/08 11:13:50;;;;;;;53.85;32.70;;;;;;;23.46;80.83;100832.94;4945705;29;20477;-90
2022/10/08 11:16:40;;;;;;;41.42;27.83;;;;;;;23.76;77.56;100826.50;4920024;29;20098;-89
2022/10/08 11:19:27;;;;;;;57.92;32.38;;;;;;;23.38;79.90;100818.91;4932850;29;20024;-91
2022/10/08 11:22:04;;;;;;;45.72;30.88;;;;;;;23.55;80.29;100809.03;4932692;29;20067;-93
2022/10/08 11:24:49;;;;;;;48.72;32.90;;;;;;;23.23;80.40;100810.50;4933058;29;20043;-91
2022/10/08 11:27:32;;;;;;;53.35;31.77;;;;;;;23.50;78.40;100800.81;4928611;29;20043;-91
2022/10/08 11:30:13;;;;;;;53.90;30.10;;;;;;;24.00;76.19;100796.38;4916704;29;20137;-91
2022/10/08 11:32:51;;;;;;;43.42;26.17;;;;;;;24.96;70.29;100797.97;4947237;29;20031;-91
2022/10/08 11:35:20;;;;;;;48.78;27.98;;;;;;;25.25;68.13;100787.81;4913240;29;20040;-91